La Grange, Illinois
Current Conditions -  °F | °C
As of 2:53 AM on Friday 31 Oct 2014 (Local Time) from KMDW Reporting Station
Light Rain Light Rain  
Wind Chill: 44°   Ceiling: 4400
Heat Index: 48°   Visibility: 10mi
Dew Point: 39°   Wind: 8mph
Humidity: 71%   Direction: 320°NW
Pressure: 30.01"   Gusts: NA
Location:  41.81°N, 87.87°W
Report Text: KMDW 310753Z 32007KT 10SM -RA FEW028 BKN044 OVC050 09/04 A3001 RMK AO2 RAE12B30 SLP166 P0000 T00890039
Loading
Personal Weather Stations






























Interactive Weather Map
Tropical Storm Tracking
New forecast layout! Learn more

10-Day Weather Forecast

Advertisements
Track Severe Weather on mobile